createdAt,value
2017-10-30T00:00:17.337Z,1012.07
2017-10-30T00:01:17.302Z,1012.11
2017-10-30T00:02:17.281Z,1012.08
2017-10-30T00:03:17.251Z,1012.09
2017-10-30T00:04:17.214Z,1012.07
2017-10-30T00:05:17.188Z,1012.10
2017-10-30T00:06:17.162Z,1012.14
2017-10-30T00:07:17.130Z,1012.11
2017-10-30T00:08:17.108Z,1012.16
2017-10-30T00:09:17.325Z,1012.15
2017-10-30T00:10:17.049Z,1012.21
2017-10-30T00:11:17.021Z,1012.21
2017-10-30T00:12:16.989Z,1012.25
2017-10-30T00:13:16.959Z,1012.23
2017-10-30T00:14:16.938Z,1012.21
2017-10-30T00:15:17.174Z,1012.25
2017-10-30T00:16:16.877Z,1012.21
2017-10-30T00:17:16.848Z,1012.24
2017-10-30T00:18:16.826Z,1012.26
2017-10-30T00:19:16.791Z,1012.19
2017-10-30T00:20:16.774Z,1012.25
2017-10-30T00:21:16.741Z,1012.27
2017-10-30T00:22:16.711Z,1012.37
2017-10-30T00:23:16.683Z,1012.32
2017-10-30T00:24:16.665Z,1012.29
2017-10-30T00:25:16.630Z,1012.39
2017-10-30T00:26:16.593Z,1012.28
2017-10-30T00:27:16.569Z,1012.30
2017-10-30T00:28:16.536Z,1012.28
2017-10-30T00:29:16.509Z,1012.38
2017-10-30T00:30:16.491Z,1012.41
2017-10-30T00:31:16.457Z,1012.42
2017-10-30T00:32:16.430Z,1012.49
2017-10-30T00:33:16.399Z,1012.41
2017-10-30T00:34:16.371Z,1012.45
2017-10-30T00:35:16.351Z,1012.45
2017-10-30T00:36:16.315Z,1012.41
2017-10-30T00:37:16.288Z,1012.47
2017-10-30T00:38:16.260Z,1012.38
2017-10-30T00:39:16.482Z,1012.34
2017-10-30T00:40:16.203Z,1012.33
2017-10-30T00:41:16.172Z,1012.42
2017-10-30T00:42:16.147Z,1012.37
2017-10-30T00:43:16.118Z,1012.40
2017-10-30T00:44:16.085Z,1012.47
2017-10-30T00:45:16.064Z,1012.51
2017-10-30T00:46:16.028Z,1012.52
2017-10-30T00:47:16.003Z,1012.59
2017-10-30T00:48:15.977Z,1012.57
2017-10-30T00:49:15.945Z,1012.58
2017-10-30T00:50:15.923Z,1012.61
2017-10-30T00:51:16.142Z,1012.56
2017-10-30T00:52:15.867Z,1012.55
2017-10-30T00:53:15.834Z,1012.54
2017-10-30T00:54:15.803Z,1012.57
2017-10-30T00:55:15.776Z,1012.62
2017-10-30T00:56:15.750Z,1012.64
2017-10-30T00:57:15.968Z,1012.60
2017-10-30T00:58:15.699Z,1012.58
2017-10-30T00:59:15.669Z,1012.64
2017-10-30T01:00:15.643Z,1012.55
2017-10-30T01:01:15.610Z,1012.53
2017-10-30T01:02:15.579Z,1012.49
2017-10-30T01:03:15.855Z,1012.52
2017-10-30T01:04:15.529Z,1012.52
2017-10-30T01:05:15.496Z,1012.52
2017-10-30T01:06:15.474Z,1012.51
2017-10-30T01:07:15.437Z,1012.63
2017-10-30T01:08:15.416Z,1012.59
2017-10-30T01:09:15.380Z,1012.66
2017-10-30T01:10:15.357Z,1012.64
2017-10-30T01:11:15.333Z,1012.73
2017-10-30T01:12:15.297Z,1012.66
2017-10-30T01:13:15.274Z,1012.69
2017-10-30T01:14:15.241Z,1012.63
2017-10-30T01:15:15.479Z,1012.59
2017-10-30T01:16:15.188Z,1012.66
2017-10-30T01:17:15.161Z,1012.71
2017-10-30T01:18:15.136Z,1012.70
2017-10-30T01:19:15.102Z,1012.71
2017-10-30T01:20:15.079Z,1012.64
2017-10-30T01:21:15.698Z,1012.72
2017-10-30T01:22:15.014Z,1012.75
2017-10-30T01:23:15.004Z,1012.75
2017-10-30T01:24:14.965Z,1012.72
2017-10-30T01:25:14.929Z,1012.73
2017-10-30T01:26:14.903Z,1012.70
2017-10-30T01:27:14.880Z,1012.75
2017-10-30T01:28:14.850Z,1012.79
2017-10-30T01:29:14.821Z,1012.78
2017-10-30T01:30:14.793Z,1012.78
2017-10-30T01:31:14.761Z,1012.86
2017-10-30T01:32:15.034Z,1012.81
2017-10-30T01:33:14.707Z,1012.83
2017-10-30T01:34:14.681Z,1012.81
2017-10-30T01:35:14.652Z,1012.80
2017-10-30T01:36:14.631Z,1012.87
2017-10-30T01:37:14.591Z,1012.83
2017-10-30T01:38:14.568Z,1012.80
2017-10-30T01:39:14.540Z,1012.83
2017-10-30T01:40:14.509Z,1012.88
2017-10-30T01:41:14.480Z,1012.98
2017-10-30T01:42:14.452Z,1012.91
2017-10-30T01:43:14.428Z,1012.92
2017-10-30T01:44:14.657Z,1013.02
2017-10-30T01:45:14.370Z,1013.03
2017-10-30T01:46:14.343Z,1012.97
2017-10-30T01:47:14.320Z,1012.93
2017-10-30T01:48:14.282Z,1013.01
2017-10-30T01:49:14.255Z,1012.97
2017-10-30T01:50:14.229Z,1013.04
2017-10-30T01:51:14.206Z,1013.03
2017-10-30T01:52:14.172Z,1013.11
2017-10-30T01:53:14.147Z,1013.04
2017-10-30T01:54:14.122Z,1013.06
2017-10-30T01:55:14.087Z,1013.10
2017-10-30T01:56:14.054Z,1013.11
2017-10-30T01:57:14.028Z,1013.19
2017-10-30T01:58:13.996Z,1013.19
2017-10-30T01:59:13.970Z,1013.18
2017-10-30T02:00:13.942Z,1013.19
2017-10-30T02:01:14.222Z,1013.20
2017-10-30T02:02:13.892Z,1013.14
2017-10-30T02:03:13.856Z,1013.13
2017-10-30T02:04:13.830Z,1013.20
2017-10-30T02:05:13.799Z,1013.11
2017-10-30T02:06:13.772Z,1013.23
2017-10-30T02:07:13.744Z,1013.25
2017-10-30T02:08:13.719Z,1013.19
2017-10-30T02:09:13.692Z,1013.18
2017-10-30T02:10:13.663Z,1013.23
2017-10-30T02:11:13.638Z,1013.24
2017-10-30T02:12:13.606Z,1013.33
2017-10-30T02:13:13.583Z,1013.22
2017-10-30T02:14:13.546Z,1013.31
2017-10-30T02:15:13.526Z,1013.07
2017-10-30T02:16:13.491Z,1013.31
2017-10-30T02:17:13.458Z,1013.29
2017-10-30T02:18:13.438Z,1013.36
2017-10-30T02:19:13.660Z,1013.41
2017-10-30T02:20:13.375Z,1013.43
2017-10-30T02:21:13.356Z,1013.38
2017-10-30T02:22:13.326Z,1013.39
2017-10-30T02:23:13.291Z,1013.41
2017-10-30T02:24:13.264Z,1013.34
2017-10-30T02:25:13.236Z,1013.41
2017-10-30T02:26:13.218Z,1013.39
2017-10-30T02:27:13.178Z,1013.49
2017-10-30T02:28:13.149Z,1013.31
2017-10-30T02:29:13.127Z,1013.49
2017-10-30T02:30:13.094Z,1013.43
2017-10-30T02:31:13.062Z,1013.57
2017-10-30T02:32:13.036Z,1013.59
2017-10-30T02:33:13.012Z,1013.62
2017-10-30T02:34:12.979Z,1013.68
2017-10-30T02:35:12.953Z,1013.64
2017-10-30T02:36:12.920Z,1013.57
2017-10-30T02:37:12.896Z,1013.68
2017-10-30T02:38:12.881Z,1013.65
2017-10-30T02:39:12.836Z,1013.64
2017-10-30T02:40:12.814Z,1013.65
2017-10-30T02:41:12.788Z,1013.68
2017-10-30T02:42:13.005Z,1013.66
2017-10-30T02:43:12.727Z,1013.66
2017-10-30T02:44:12.692Z,1013.74
2017-10-30T02:45:12.672Z,1013.74
2017-10-30T02:46:12.641Z,1013.70
2017-10-30T02:47:12.618Z,1013.77
2017-10-30T02:48:12.582Z,1013.71
2017-10-30T02:49:12.555Z,1013.73
2017-10-30T02:50:12.532Z,1013.75
2017-10-30T02:51:12.500Z,1013.70
2017-10-30T02:52:12.469Z,1013.79
2017-10-30T02:53:12.438Z,1013.78
2017-10-30T02:54:12.667Z,1013.73
2017-10-30T02:55:12.386Z,1013.78
2017-10-30T02:56:12.354Z,1013.84
2017-10-30T02:57:12.323Z,1013.80
2017-10-30T02:58:12.307Z,1013.81
2017-10-30T02:59:12.278Z,1013.88
2017-10-30T03:00:12.239Z,1013.86
2017-10-30T03:01:12.228Z,1013.96
2017-10-30T03:02:12.185Z,1013.99
2017-10-30T03:03:12.158Z,1013.93
2017-10-30T03:04:12.124Z,1014.01
2017-10-30T03:05:12.109Z,1014.02
2017-10-30T03:06:12.321Z,1014.02
2017-10-30T03:07:12.044Z,1014.03
2017-10-30T03:08:12.014Z,1014.10
2017-10-30T03:09:11.988Z,1014.03
2017-10-30T03:10:11.953Z,1014.15
2017-10-30T03:11:11.928Z,1014.13
2017-10-30T03:12:12.157Z,1014.12
2017-10-30T03:13:11.883Z,1014.13
2017-10-30T03:14:11.847Z,1014.14
2017-10-30T03:15:11.821Z,1014.11
2017-10-30T03:16:11.780Z,1014.15
2017-10-30T03:17:11.761Z,1014.16
2017-10-30T03:18:12.083Z,1014.24
2017-10-30T03:19:11.701Z,1014.32
2017-10-30T03:20:11.667Z,1014.28
2017-10-30T03:21:11.645Z,1014.28
2017-10-30T03:22:11.615Z,1014.34
2017-10-30T03:23:11.587Z,1014.35
2017-10-30T03:24:11.553Z,1014.35
2017-10-30T03:25:11.528Z,1014.32
2017-10-30T03:26:11.501Z,1014.37
2017-10-30T03:27:11.471Z,1014.39
2017-10-30T03:28:11.441Z,1014.33
2017-10-30T03:29:11.418Z,1014.40
2017-10-30T03:30:11.381Z,1014.33
2017-10-30T03:31:11.362Z,1014.39
2017-10-30T03:32:11.327Z,1014.43
2017-10-30T03:33:11.298Z,1014.44
2017-10-30T03:34:11.278Z,1014.47
2017-10-30T03:35:11.238Z,1014.47
2017-10-30T03:36:11.213Z,1014.53
2017-10-30T03:37:11.188Z,1014.51
2017-10-30T03:38:11.155Z,1014.52
2017-10-30T03:39:11.130Z,1014.55
2017-10-30T03:40:11.097Z,1014.54
2017-10-30T03:41:11.071Z,1014.55
2017-10-30T03:42:11.042Z,1014.56
2017-10-30T03:43:11.010Z,1014.63
2017-10-30T03:44:10.983Z,1014.62
2017-10-30T03:45:10.951Z,1014.68
2017-10-30T03:46:10.929Z,1014.61
2017-10-30T03:47:11.149Z,1014.75
2017-10-30T03:48:10.885Z,1014.79
2017-10-30T03:49:10.847Z,1014.72
2017-10-30T03:50:10.813Z,1014.79
2017-10-30T03:51:10.784Z,1014.74
2017-10-30T03:52:10.753Z,1014.73
2017-10-30T03:53:11.726Z,1014.76
2017-10-30T03:54:10.696Z,1014.78
2017-10-30T03:55:10.675Z,1014.77
2017-10-30T03:56:10.647Z,1014.77
2017-10-30T03:57:10.613Z,1014.66
2017-10-30T03:58:10.589Z,1014.76
2017-10-30T03:59:10.552Z,1014.76
2017-10-30T04:00:10.525Z,1014.78
2017-10-30T04:01:10.494Z,1014.80
2017-10-30T04:02:10.466Z,1014.86
2017-10-30T04:03:10.435Z,1014.80
2017-10-30T04:04:10.403Z,1014.78
2017-10-30T04:05:10.377Z,1014.84
2017-10-30T04:06:10.353Z,1014.85
2017-10-30T04:07:10.330Z,1014.87
2017-10-30T04:08:10.296Z,1014.92
2017-10-30T04:09:10.264Z,1014.86
2017-10-30T04:10:10.240Z,1014.87
2017-10-30T04:11:10.209Z,1014.98
2017-10-30T04:12:10.177Z,1014.98
2017-10-30T04:13:10.145Z,1014.96
2017-10-30T04:14:10.120Z,1014.96
2017-10-30T04:15:10.092Z,1015.03
2017-10-30T04:16:10.066Z,1014.97
2017-10-30T04:17:10.284Z,1015.03
2017-10-30T04:18:10.015Z,1014.99
2017-10-30T04:19:09.976Z,1014.99
2017-10-30T04:20:09.943Z,1015.04
2017-10-30T04:21:09.919Z,1015.07
2017-10-30T04:22:09.891Z,1015.02
2017-10-30T04:23:09.860Z,1015.05
2017-10-30T04:24:09.834Z,1015.08
2017-10-30T04:25:09.808Z,1015.15
2017-10-30T04:26:09.772Z,1015.12
2017-10-30T04:27:09.749Z,1015.23
2017-10-30T04:28:09.714Z,1015.25
2017-10-30T04:29:09.698Z,1015.22
2017-10-30T04:30:09.660Z,1015.26
2017-10-30T04:31:09.626Z,1015.31
2017-10-30T04:32:09.602Z,1015.28
2017-10-30T04:33:09.569Z,1015.33
2017-10-30T04:34:09.794Z,1015.35
2017-10-30T04:35:09.518Z,1015.29
2017-10-30T04:36:09.486Z,1015.31
2017-10-30T04:37:09.458Z,1015.33
2017-10-30T04:38:09.431Z,1015.30
2017-10-30T04:39:09.397Z,1015.28
2017-10-30T04:40:09.728Z,1015.34
2017-10-30T04:41:09.342Z,1015.34
2017-10-30T04:42:09.313Z,1015.36
2017-10-30T04:43:09.283Z,1015.29
2017-10-30T04:44:09.253Z,1015.37
2017-10-30T04:45:09.222Z,1015.34
2017-10-30T04:46:09.449Z,1015.37
2017-10-30T04:47:09.168Z,1015.37
2017-10-30T04:48:09.139Z,1015.47
2017-10-30T04:49:09.112Z,1015.50
2017-10-30T04:50:09.083Z,1015.48
2017-10-30T04:51:09.049Z,1015.53
2017-10-30T04:52:09.329Z,1015.59
2017-10-30T04:53:09.000Z,1015.62
2017-10-30T04:54:08.965Z,1015.61
2017-10-30T04:55:08.936Z,1015.65
2017-10-30T04:56:08.909Z,1015.69
2017-10-30T04:57:08.884Z,1015.69
2017-10-30T04:58:08.848Z,1015.63
2017-10-30T04:59:08.819Z,1015.62
2017-10-30T05:00:08.796Z,1015.65
2017-10-30T05:01:08.759Z,1015.60
2017-10-30T05:02:08.731Z,1015.57
2017-10-30T05:03:08.707Z,1015.63
2017-10-30T05:04:08.674Z,1015.58
2017-10-30T05:05:08.649Z,1015.55
2017-10-30T05:06:08.618Z,1015.62
2017-10-30T05:07:08.592Z,1015.54
2017-10-30T05:08:08.555Z,1015.59
2017-10-30T05:09:08.548Z,1015.61
2017-10-30T05:10:08.761Z,1015.64
2017-10-30T05:11:08.470Z,1015.61
2017-10-30T05:12:08.440Z,1015.64
2017-10-30T05:13:08.408Z,1015.67
2017-10-30T05:14:08.387Z,1015.60
2017-10-30T05:15:08.353Z,1015.74
2017-10-30T05:16:08.326Z,1015.73
2017-10-30T05:17:08.297Z,1015.73
2017-10-30T05:18:08.269Z,1015.56
2017-10-30T05:19:08.239Z,1015.80
2017-10-30T05:20:08.206Z,1015.82
2017-10-30T05:21:08.439Z,1015.85
2017-10-30T05:22:08.150Z,1015.88
2017-10-30T05:23:08.126Z,1015.80
2017-10-30T05:24:08.091Z,1015.88
2017-10-30T05:25:08.061Z,1015.86
2017-10-30T05:26:08.035Z,1015.90
2017-10-30T05:27:08.257Z,1015.86
2017-10-30T05:28:07.973Z,1015.95
2017-10-30T05:29:07.947Z,1015.90
2017-10-30T05:30:07.922Z,1015.83
2017-10-30T05:31:07.888Z,1015.99
2017-10-30T05:32:07.863Z,1015.95
2017-10-30T05:33:07.833Z,1015.98
2017-10-30T05:34:07.799Z,1016.08
2017-10-30T05:35:07.770Z,1015.98
2017-10-30T05:36:07.745Z,1016.08
2017-10-30T05:37:07.714Z,1016.02
2017-10-30T05:38:07.683Z,1016.03
2017-10-30T05:39:07.675Z,1016.06
2017-10-30T05:40:07.633Z,1016.10
2017-10-30T05:41:07.605Z,1016.10
2017-10-30T05:42:07.572Z,1016.08
2017-10-30T05:43:07.538Z,1016.13
2017-10-30T05:44:07.505Z,1016.08
2017-10-30T05:45:07.478Z,1016.16
2017-10-30T05:46:07.448Z,1016.16
2017-10-30T05:47:07.420Z,1016.17
2017-10-30T05:48:07.396Z,1016.18
2017-10-30T05:49:07.365Z,1016.20
2017-10-30T05:50:07.334Z,1016.17
2017-10-30T05:51:07.558Z,1016.18
2017-10-30T05:52:07.273Z,1016.18
2017-10-30T05:53:07.246Z,1016.19
2017-10-30T05:54:07.222Z,1016.27
2017-10-30T05:55:07.187Z,1016.27
2017-10-30T05:56:07.163Z,1016.27
2017-10-30T05:57:07.128Z,1016.26
2017-10-30T05:58:07.099Z,1016.25
2017-10-30T05:59:07.071Z,1016.34
2017-10-30T06:00:07.041Z,1016.34
2017-10-30T06:01:07.016Z,1016.38
2017-10-30T06:02:06.983Z,1016.36
2017-10-30T06:03:07.209Z,1016.36
2017-10-30T06:04:06.927Z,1016.39
2017-10-30T06:05:06.895Z,1016.43
2017-10-30T06:06:06.863Z,1016.49
2017-10-30T06:07:06.836Z,1016.55
2017-10-30T06:08:06.807Z,1016.55
2017-10-30T06:09:06.780Z,1016.51
2017-10-30T06:10:06.753Z,1016.56
2017-10-30T06:11:06.719Z,1016.55
2017-10-30T06:12:06.696Z,1016.57
2017-10-30T06:13:06.661Z,1016.60
2017-10-30T06:14:06.632Z,1016.64
2017-10-30T06:15:06.631Z,1016.62
2017-10-30T06:16:06.580Z,1016.64
2017-10-30T06:17:06.541Z,1016.63
2017-10-30T06:18:06.520Z,1016.66
2017-10-30T06:19:06.490Z,1016.62
2017-10-30T06:20:06.457Z,1016.64
2017-10-30T06:21:06.676Z,1016.64
2017-10-30T06:22:06.393Z,1016.65
2017-10-30T06:23:06.369Z,1016.68
2017-10-30T06:24:06.343Z,1016.79
2017-10-30T06:25:06.306Z,1016.78
2017-10-30T06:26:06.287Z,1016.84
2017-10-30T06:27:06.248Z,1016.84
2017-10-30T06:28:06.225Z,1016.90
2017-10-30T06:29:06.196Z,1016.92
2017-10-30T06:30:06.166Z,1016.96
2017-10-30T06:31:06.137Z,1017.05
2017-10-30T06:32:06.104Z,1017.09
2017-10-30T06:33:06.082Z,1017.11
2017-10-30T06:34:06.045Z,1017.08
2017-10-30T06:35:06.018Z,1017.12
2017-10-30T06:36:05.984Z,1017.16
2017-10-30T06:37:05.959Z,1017.16
2017-10-30T06:38:05.932Z,1017.16
2017-10-30T06:39:05.902Z,1017.15
2017-10-30T06:40:05.873Z,1017.18
2017-10-30T06:41:05.850Z,1017.23
2017-10-30T06:42:05.817Z,1017.26
2017-10-30T06:43:05.792Z,1017.30
2017-10-30T06:44:05.755Z,1017.32
2017-10-30T06:45:05.730Z,1017.31
2017-10-30T06:46:05.704Z,1017.35
2017-10-30T06:47:05.676Z,1017.38
2017-10-30T06:48:05.640Z,1017.40
2017-10-30T06:49:05.615Z,1017.39
2017-10-30T06:50:05.586Z,1017.41
2017-10-30T06:51:05.554Z,1017.36
2017-10-30T06:52:05.530Z,1017.39
2017-10-30T06:53:05.502Z,1017.41
2017-10-30T06:54:05.472Z,1017.45
2017-10-30T06:55:05.453Z,1017.40
2017-10-30T06:56:05.414Z,1017.43
2017-10-30T06:57:05.388Z,1017.49
2017-10-30T06:58:05.361Z,1017.52
2017-10-30T06:59:05.331Z,1017.46
2017-10-30T07:00:05.303Z,1017.45
2017-10-30T07:01:05.278Z,1017.48
2017-10-30T07:02:05.250Z,1017.49
2017-10-30T07:03:05.235Z,1017.57
2017-10-30T07:04:05.211Z,1017.54
2017-10-30T07:05:05.173Z,1017.56
2017-10-30T07:06:05.138Z,1017.58
2017-10-30T07:07:05.115Z,1017.68
2017-10-30T07:08:05.082Z,1017.69
2017-10-30T07:09:05.052Z,1017.74
2017-10-30T07:10:05.037Z,1017.78
2017-10-30T07:11:04.999Z,1017.80
2017-10-30T07:12:04.966Z,1017.84
2017-10-30T07:13:04.950Z,1017.91
2017-10-30T07:14:04.919Z,1017.96
2017-10-30T07:15:04.884Z,1018.03
2017-10-30T07:16:04.858Z,1018.04
2017-10-30T07:17:04.834Z,1018.07
2017-10-30T07:18:04.802Z,1018.10
2017-10-30T07:19:04.780Z,1018.24
2017-10-30T07:20:04.752Z,1018.26
2017-10-30T07:21:04.723Z,1018.32
2017-10-30T07:22:04.700Z,1018.38
2017-10-30T07:23:04.667Z,1018.44
2017-10-30T07:24:04.638Z,1018.54
2017-10-30T07:25:04.619Z,1018.51
2017-10-30T07:26:04.589Z,1018.49
2017-10-30T07:27:04.559Z,1018.55
2017-10-30T07:28:04.527Z,1018.58
2017-10-30T07:29:04.513Z,1018.65
2017-10-30T07:30:04.477Z,1018.71
2017-10-30T07:31:04.804Z,1018.71
2017-10-30T07:32:04.428Z,1018.75
2017-10-30T07:33:04.397Z,1018.80
2017-10-30T07:34:04.371Z,1018.90
2017-10-30T07:35:04.340Z,1018.99
2017-10-30T07:36:04.338Z,1018.99
2017-10-30T07:37:04.292Z,1018.98
2017-10-30T07:38:04.267Z,1018.99
2017-10-30T07:39:04.243Z,1018.96
2017-10-30T07:40:04.221Z,1018.95
2017-10-30T07:41:04.188Z,1018.99
2017-10-30T07:42:04.162Z,1019.00
2017-10-30T07:43:04.137Z,1018.97
2017-10-30T07:44:04.112Z,1018.94
2017-10-30T07:45:04.085Z,1018.89
2017-10-30T07:46:04.058Z,1018.95
2017-10-30T07:47:04.035Z,1018.92
2017-10-30T07:48:04.001Z,1018.85
2017-10-30T07:49:03.981Z,1018.87
2017-10-30T07:50:03.954Z,1018.72
2017-10-30T07:51:03.924Z,1018.77
2017-10-30T07:52:03.898Z,1018.82
2017-10-30T07:53:03.872Z,1018.72
2017-10-30T07:54:03.850Z,1018.71
2017-10-30T07:55:03.819Z,1018.71
2017-10-30T07:56:03.791Z,1018.69
2017-10-30T07:57:03.771Z,1018.70
2017-10-30T07:58:03.750Z,1018.72
2017-10-30T07:59:03.714Z,1018.77
2017-10-30T08:00:03.696Z,1018.78
2017-10-30T08:01:03.668Z,1018.84
2017-10-30T08:02:03.645Z,1018.87
2017-10-30T08:03:03.613Z,1018.87
2017-10-30T08:04:03.596Z,1018.98
2017-10-30T08:05:03.568Z,1019.04
2017-10-30T08:06:03.539Z,1019.08
2017-10-30T08:07:03.517Z,1019.15
2017-10-30T08:08:03.488Z,1019.03
2017-10-30T08:09:03.464Z,1018.99
2017-10-30T08:10:03.439Z,1018.94
2017-10-30T08:11:03.414Z,1018.90
2017-10-30T08:12:03.389Z,1018.91
2017-10-30T08:13:03.359Z,1018.84
2017-10-30T08:14:03.339Z,1018.82
2017-10-30T08:15:03.314Z,1018.78
2017-10-30T08:16:03.293Z,1018.79
2017-10-30T08:17:03.271Z,1018.84
2017-10-30T08:18:03.243Z,1018.75
2017-10-30T08:19:03.218Z,1018.73
2017-10-30T08:20:03.187Z,1018.79
2017-10-30T08:21:03.167Z,1018.80
2017-10-30T08:22:03.145Z,1018.78
2017-10-30T08:23:03.115Z,1018.80
2017-10-30T08:24:03.090Z,1018.78
2017-10-30T08:25:03.061Z,1018.82
2017-10-30T08:26:03.039Z,1018.85
2017-10-30T08:27:03.018Z,1018.84
2017-10-30T08:28:02.991Z,1018.85
2017-10-30T08:29:02.970Z,1018.82
2017-10-30T08:30:02.945Z,1018.91
2017-10-30T08:31:02.920Z,1018.85
2017-10-30T08:32:02.899Z,1018.90
2017-10-30T08:33:02.868Z,1018.91
2017-10-30T08:34:02.841Z,1018.88
2017-10-30T08:35:02.820Z,1018.92
2017-10-30T08:36:02.794Z,1018.95
2017-10-30T08:37:02.765Z,1018.94
2017-10-30T08:38:02.749Z,1018.93
2017-10-30T08:39:02.716Z,1018.91
2017-10-30T08:40:02.697Z,1018.91
2017-10-30T08:41:02.679Z,1018.93
2017-10-30T08:42:02.652Z,1018.94
2017-10-30T08:43:02.632Z,1018.93
2017-10-30T08:44:02.598Z,1018.97
2017-10-30T08:45:02.578Z,1018.92
2017-10-30T08:46:02.555Z,1018.94
2017-10-30T08:47:02.536Z,1018.97
2017-10-30T08:48:02.502Z,1018.93
2017-10-30T08:49:02.480Z,1018.93
2017-10-30T08:50:02.456Z,1018.99
2017-10-30T08:51:02.432Z,1018.97
2017-10-30T08:52:02.407Z,1018.99
2017-10-30T08:53:02.385Z,1018.97
2017-10-30T08:54:02.359Z,1018.96
2017-10-30T08:55:02.339Z,1019.04
2017-10-30T08:56:02.317Z,1019.11
2017-10-30T08:57:02.297Z,1019.11
2017-10-30T08:58:02.272Z,1019.11
2017-10-30T08:59:02.244Z,1019.15
2017-10-30T09:00:02.224Z,1019.17
2017-10-30T09:01:02.197Z,1019.12
2017-10-30T09:02:02.171Z,1019.15
2017-10-30T09:03:02.149Z,1019.14
2017-10-30T09:04:02.124Z,1019.20
2017-10-30T09:05:02.110Z,1019.20
2017-10-30T09:06:02.092Z,1019.19
2017-10-30T09:07:02.064Z,1019.17
2017-10-30T09:08:02.039Z,1019.13
2017-10-30T09:09:02.018Z,1019.11
2017-10-30T09:10:01.991Z,1019.15
2017-10-30T09:11:01.968Z,1019.13
2017-10-30T09:12:01.956Z,1019.14
2017-10-30T09:13:01.923Z,1019.19
2017-10-30T09:14:01.907Z,1019.22
2017-10-30T09:15:01.877Z,1019.18
2017-10-30T09:16:01.861Z,1019.25
2017-10-30T09:17:01.832Z,1019.27
2017-10-30T09:18:01.809Z,1019.33
2017-10-30T09:19:01.788Z,1019.32
2017-10-30T09:20:01.764Z,1019.34
2017-10-30T09:21:01.742Z,1019.35
2017-10-30T09:22:01.718Z,1019.33
2017-10-30T09:23:01.696Z,1019.33
2017-10-30T09:24:01.670Z,1019.35
2017-10-30T09:25:02.181Z,1019.37
2017-10-30T09:26:01.629Z,1019.37
2017-10-30T09:27:01.607Z,1019.43
2017-10-30T09:28:01.590Z,1019.42
2017-10-30T09:29:01.571Z,1019.42
2017-10-30T09:30:01.536Z,1019.42
2017-10-30T09:31:01.517Z,1019.45
2017-10-30T09:32:01.493Z,1019.41
2017-10-30T09:33:01.511Z,1019.38
2017-10-30T09:34:01.450Z,1019.42
2017-10-30T09:35:01.427Z,1019.39
2017-10-30T09:36:01.406Z,1019.47
2017-10-30T09:37:01.382Z,1019.46
2017-10-30T09:38:01.364Z,1019.42
2017-10-30T09:39:01.338Z,1019.41
2017-10-30T09:40:01.310Z,1019.41
2017-10-30T09:41:01.321Z,1019.44
2017-10-30T09:42:01.270Z,1019.49
2017-10-30T09:43:01.250Z,1019.43
2017-10-30T09:44:01.262Z,1019.49
2017-10-30T09:45:01.203Z,1019.50
2017-10-30T09:46:01.181Z,1019.51
2017-10-30T09:47:01.160Z,1019.50
2017-10-30T09:48:01.136Z,1019.48
2017-10-30T09:49:01.114Z,1019.58
2017-10-30T09:50:01.100Z,1019.55
2017-10-30T09:51:01.073Z,1019.52
2017-10-30T09:52:01.044Z,1019.51
2017-10-30T09:53:01.026Z,1019.58
2017-10-30T09:54:01.005Z,1019.58
2017-10-30T09:55:00.982Z,1019.61
2017-10-30T09:56:00.960Z,1019.59
2017-10-30T09:57:00.937Z,1019.54
2017-10-30T09:58:00.924Z,1019.53
2017-10-30T09:59:00.895Z,1019.55
2017-10-30T10:00:00.874Z,1019.48
2017-10-30T10:01:00.854Z,1019.59
2017-10-30T10:02:00.825Z,1019.58
2017-10-30T10:03:01.056Z,1019.65
2017-10-30T10:04:00.781Z,1019.64
2017-10-30T10:05:00.767Z,1019.64
2017-10-30T10:06:00.745Z,1019.61
2017-10-30T10:07:00.716Z,1019.71
2017-10-30T10:08:00.701Z,1019.70
2017-10-30T10:09:00.675Z,1019.72
2017-10-30T10:10:00.652Z,1019.74
2017-10-30T10:11:00.631Z,1019.69
2017-10-30T10:12:00.609Z,1019.70
2017-10-30T10:13:00.591Z,1019.75
2017-10-30T10:14:00.565Z,1019.74
2017-10-30T10:15:00.544Z,1019.72
2017-10-30T10:16:00.522Z,1019.79
2017-10-30T10:17:00.500Z,1019.81
2017-10-30T10:18:00.474Z,1019.75
2017-10-30T10:19:00.452Z,1019.79
2017-10-30T10:20:00.434Z,1019.76
2017-10-30T10:21:00.414Z,1019.82
2017-10-30T10:22:00.397Z,1019.90
2017-10-30T10:23:00.371Z,1019.90
2017-10-30T10:24:00.347Z,1019.89
2017-10-30T10:25:00.322Z,1019.92
2017-10-30T10:26:00.305Z,1019.92
2017-10-30T10:27:00.285Z,1019.99
2017-10-30T10:28:00.254Z,1020.02
2017-10-30T10:29:00.239Z,1020.05
2017-10-30T10:30:00.218Z,1020.14
2017-10-30T10:31:00.194Z,1020.22
2017-10-30T10:32:00.168Z,1020.21
2017-10-30T10:33:00.154Z,1020.35
2017-10-30T10:34:00.123Z,1020.38
2017-10-30T10:35:00.107Z,1020.41
2017-10-30T10:36:00.086Z,1020.41
2017-10-30T10:37:00.075Z,1020.41
2017-10-30T10:38:00.047Z,1020.38
2017-10-30T10:39:00.018Z,1020.38
2017-10-30T10:39:59.996Z,1020.39
2017-10-30T10:40:59.975Z,1020.53
2017-10-30T10:41:59.960Z,1020.62
2017-10-30T10:42:59.933Z,1020.55
2017-10-30T10:43:59.907Z,1020.60
2017-10-30T10:44:59.886Z,1020.65
2017-10-30T10:45:59.868Z,1020.81
2017-10-30T10:46:59.842Z,1020.97
2017-10-30T10:47:59.830Z,1021.10
2017-10-30T10:48:59.818Z,1021.18
2017-10-30T10:49:59.779Z,1021.15
2017-10-30T10:50:59.759Z,1021.18
2017-10-30T10:51:59.738Z,1021.15
2017-10-30T10:52:59.716Z,1021.13
2017-10-30T10:53:59.692Z,1021.14
2017-10-30T10:54:59.669Z,1021.16
2017-10-30T10:55:59.647Z,1021.16
2017-10-30T10:56:59.636Z,1021.12
2017-10-30T10:57:59.610Z,1021.12
2017-10-30T10:58:59.597Z,1021.15
2017-10-30T10:59:59.573Z,1021.11
2017-10-30T11:00:59.549Z,1021.10
2017-10-30T11:01:59.525Z,1021.11
2017-10-30T11:02:59.502Z,1020.46
2017-10-30T11:03:59.482Z,1020.13
2017-10-30T11:04:59.461Z,1020.10
2017-10-30T11:05:59.440Z,1021.11
2017-10-30T11:06:59.430Z,1021.12
2017-10-30T11:07:59.406Z,1021.16
2017-10-30T11:08:59.376Z,1021.11
2017-10-30T11:09:59.357Z,1020.67
2017-10-30T11:10:59.340Z,1021.02
2017-10-30T11:11:59.326Z,1021.13
2017-10-30T11:12:59.295Z,1020.94
2017-10-30T11:13:59.278Z,1021.22
2017-10-30T11:14:59.256Z,1021.30
2017-10-30T11:15:59.237Z,1021.34
2017-10-30T11:16:59.213Z,1021.37
2017-10-30T11:17:59.192Z,1020.62
2017-10-30T11:18:59.171Z,1020.42
2017-10-30T11:19:59.148Z,1020.53
2017-10-30T11:20:59.132Z,1021.31
2017-10-30T11:21:59.114Z,1021.35
2017-10-30T11:22:59.099Z,1021.37
2017-10-30T11:23:59.070Z,1021.41
2017-10-30T11:24:59.053Z,1020.60
2017-10-30T11:25:59.034Z,1021.36
2017-10-30T11:26:59.016Z,1021.12
2017-10-30T11:27:59.001Z,1021.10
2017-10-30T11:28:58.974Z,1020.55
2017-10-30T11:29:58.955Z,1020.79
2017-10-30T11:30:58.943Z,1020.79
2017-10-30T11:31:58.919Z,1020.35
2017-10-30T11:32:58.907Z,1020.19
2017-10-30T11:33:58.880Z,1020.80
2017-10-30T11:34:58.864Z,1020.42
2017-10-30T11:35:58.848Z,1020.27
2017-10-30T11:36:58.827Z,1020.97
2017-10-30T11:37:58.802Z,1020.50
2017-10-30T11:38:58.784Z,1020.81
2017-10-30T11:39:58.766Z,1020.04
2017-10-30T11:40:58.748Z,1020.02
2017-10-30T11:41:58.730Z,1020.05
2017-10-30T11:42:58.705Z,1020.21
2017-10-30T11:43:58.687Z,1020.30
2017-10-30T11:44:58.674Z,1020.80
2017-10-30T11:45:58.654Z,1020.91
2017-10-30T11:46:58.630Z,1020.92
2017-10-30T11:47:58.608Z,1020.66
2017-10-30T11:48:58.591Z,1020.52
2017-10-30T11:49:58.566Z,1020.29
2017-10-30T11:50:58.553Z,1020.40
2017-10-30T11:51:58.542Z,1020.51
2017-10-30T11:52:58.511Z,1020.11
2017-10-30T11:53:58.493Z,1019.74
2017-10-30T11:54:58.472Z,1019.85
2017-10-30T11:55:58.450Z,1019.84
2017-10-30T11:56:58.432Z,1019.82
2017-10-30T11:57:58.400Z,1019.89
2017-10-30T11:58:58.390Z,1020.11
2017-10-30T11:59:58.358Z,1020.48
2017-10-30T12:00:58.341Z,1020.27
2017-10-30T12:01:58.670Z,1020.77
2017-10-30T12:02:58.294Z,1020.03
2017-10-30T12:03:58.271Z,1019.93
2017-10-30T12:04:58.254Z,1020.01